createdAt,value
2018-04-15T00:00:08.589Z,15.8
2018-04-15T00:00:59.226Z,15.8
2018-04-15T00:01:49.293Z,15.8
2018-04-15T00:02:39.058Z,15.7
2018-04-15T00:03:29.121Z,15.7
2018-04-15T00:04:19.483Z,15.8
2018-04-15T00:05:09.550Z,15.8
2018-04-15T00:05:59.032Z,15.8
2018-04-15T00:06:49.651Z,15.8
2018-04-15T00:07:39.452Z,15.8
2018-04-15T00:08:29.790Z,15.8
2018-04-15T00:09:19.576Z,15.7
2018-04-15T00:10:09.920Z,15.6
2018-04-15T00:11:00.029Z,15.5
2018-04-15T00:11:50.069Z,15.6
2018-04-15T00:12:40.093Z,15.5
2018-04-15T00:13:30.204Z,15.4
2018-04-15T00:14:19.705Z,15.5
2018-04-15T00:15:10.314Z,15.6
2018-04-15T00:16:00.402Z,15.5
2018-04-15T00:16:50.417Z,15.4
2018-04-15T00:17:40.480Z,15.4
2018-04-15T00:18:30.545Z,15.4
2018-04-15T00:19:20.062Z,15.4
2018-04-15T00:20:10.393Z,15.4
2018-04-15T00:21:00.212Z,15.3
2018-04-15T00:21:50.257Z,15.4
2018-04-15T00:22:40.624Z,15.4
2018-04-15T00:23:30.957Z,15.4
2018-04-15T00:24:20.450Z,15.4
2018-04-15T00:25:10.780Z,15.3
2018-04-15T00:26:00.588Z,15.2
2018-04-15T00:26:50.921Z,15.2
2018-04-15T00:27:41.476Z,15.2
2018-04-15T00:28:31.329Z,15.2
2018-04-15T00:29:21.394Z,15.3
2018-04-15T00:30:11.451Z,15.1
2018-04-15T00:31:01.492Z,15.1
2018-04-15T00:31:51.293Z,15.1
2018-04-15T00:32:41.069Z,15.2
2018-04-15T00:33:31.426Z,15.1
2018-04-15T00:34:21.781Z,15.1
2018-04-15T00:35:11.816Z,15.1
2018-04-15T00:36:01.641Z,15.1
2018-04-15T00:36:51.385Z,15.1
2018-04-15T00:37:41.744Z,15.1
2018-04-15T00:38:31.518Z,15.1
2018-04-15T00:39:22.140Z,15.1
2018-04-15T00:40:12.223Z,15.1
2018-04-15T00:41:02.000Z,15
2018-04-15T00:41:52.352Z,15.1
2018-04-15T00:42:42.411Z,15
2018-04-15T00:43:32.486Z,14.9
2018-04-15T00:44:22.261Z,14.9
2018-04-15T00:45:12.578Z,14.9
2018-04-15T00:46:02.375Z,15
2018-04-15T00:46:52.706Z,15
2018-04-15T00:47:42.786Z,15.1
2018-04-15T00:48:32.848Z,15.1
2018-04-15T00:49:22.910Z,15.1
2018-04-15T00:50:12.708Z,15
2018-04-15T00:51:03.056Z,14.9
2018-04-15T00:51:52.822Z,14.9
2018-04-15T00:52:42.880Z,14.8
2018-04-15T00:53:33.220Z,14.8
2018-04-15T00:54:23.288Z,14.7
2018-04-15T00:55:12.516Z,14.7
2018-04-15T00:56:03.167Z,14.6
2018-04-15T00:56:53.488Z,14.6
2018-04-15T00:57:42.973Z,14.6
2018-04-15T00:58:33.621Z,14.6
2018-04-15T00:59:23.145Z,14.5
2018-04-15T01:00:13.737Z,14.4
2018-04-15T01:01:03.552Z,14.4
2018-04-15T01:01:53.579Z,14.6
2018-04-15T01:02:43.963Z,14.5
2018-04-15T01:03:33.738Z,14.4
2018-04-15T01:04:24.070Z,14.3
2018-04-15T01:05:13.843Z,14.3
2018-04-15T01:06:04.196Z,14.3
2018-04-15T01:06:54.249Z,14.3
2018-04-15T01:07:44.034Z,14.1
2018-04-15T01:08:34.392Z,14.1
2018-04-15T01:09:24.450Z,14.1
2018-04-15T01:10:14.501Z,14.1
2018-04-15T01:11:04.571Z,14.1
2018-04-15T01:11:54.339Z,14.1
2018-04-15T01:12:44.407Z,14.1
2018-04-15T01:13:34.799Z,14.2
2018-04-15T01:14:24.265Z,14.3
2018-04-15T01:15:14.646Z,14.3
2018-04-15T01:16:04.696Z,14.2
2018-04-15T01:16:54.767Z,14.2
2018-04-15T01:17:44.778Z,14.2
2018-04-15T01:18:34.857Z,14.2
2018-04-15T01:19:24.955Z,14.1
2018-04-15T01:20:15.016Z,14.1
2018-04-15T01:21:05.110Z,14.1
2018-04-15T01:21:55.385Z,14
2018-04-15T01:22:44.905Z,14
2018-04-15T01:23:35.558Z,14
2018-04-15T01:24:25.600Z,14
2018-04-15T01:25:15.725Z,14
2018-04-15T01:26:05.741Z,13.9
2018-04-15T01:26:55.799Z,13.9
2018-04-15T01:27:45.836Z,13.9
2018-04-15T01:28:35.899Z,13.9
2018-04-15T01:29:25.973Z,13.9
2018-04-15T01:30:15.787Z,13.8
2018-04-15T01:31:06.119Z,13.8
2018-04-15T01:31:56.157Z,13.8
2018-04-15T01:32:46.255Z,13.7
2018-04-15T01:33:36.340Z,13.7
2018-04-15T01:34:25.802Z,13.8
2018-04-15T01:35:16.140Z,13.6
2018-04-15T01:36:06.565Z,13.5
2018-04-15T01:36:56.576Z,13.4
2018-04-15T01:37:46.626Z,13.3
2018-04-15T01:38:36.405Z,13.2
2018-04-15T01:39:26.467Z,13.1
2018-04-15T01:40:16.787Z,13.1
2018-04-15T01:41:06.867Z,13
2018-04-15T01:41:56.384Z,12.9
2018-04-15T01:42:46.716Z,12.9
2018-04-15T01:43:36.781Z,12.9
2018-04-15T01:44:26.894Z,12.9
2018-04-15T01:45:16.919Z,12.9
2018-04-15T01:46:07.247Z,12.9
2018-04-15T01:46:56.766Z,12.8
2018-04-15T01:47:47.101Z,12.8
2018-04-15T01:48:36.883Z,12.8
2018-04-15T01:49:27.507Z,12.7
2018-04-15T01:50:17.011Z,12.6
2018-04-15T01:51:07.114Z,12.6
2018-04-15T01:51:57.406Z,12.6
2018-04-15T01:52:47.485Z,12.6
2018-04-15T01:53:37.356Z,12.6
2018-04-15T01:54:27.624Z,12.4
2018-04-15T01:55:17.960Z,12.4
2018-04-15T01:56:07.740Z,12.4
2018-04-15T01:56:58.105Z,12.3
2018-04-15T01:57:48.148Z,12.3
2018-04-15T01:58:37.644Z,12.4
2018-04-15T01:59:28.263Z,12.4
2018-04-15T02:00:18.341Z,12.4
2018-04-15T02:01:08.117Z,12.4
2018-04-15T02:01:58.459Z,12.5
2018-04-15T02:02:48.532Z,12.5
2018-04-15T02:03:38.307Z,12.5
2018-04-15T02:04:28.642Z,12.5
2018-04-15T02:05:18.692Z,12.6
2018-04-15T02:06:08.766Z,12.6
2018-04-15T02:06:58.568Z,12.8
2018-04-15T02:07:48.639Z,12.8
2018-04-15T02:08:38.969Z,12.7
2018-04-15T02:09:28.757Z,12.6
2018-04-15T02:10:19.093Z,12.6
2018-04-15T02:11:09.157Z,12.5
2018-04-15T02:11:58.941Z,12.4
2018-04-15T02:12:49.013Z,12.4
2018-04-15T02:13:39.085Z,12.3
2018-04-15T02:14:29.155Z,12.2
2018-04-15T02:15:19.225Z,12.2
2018-04-15T02:16:09.532Z,12.3
2018-04-15T02:16:59.610Z,12.3
2018-04-15T02:17:49.399Z,12.3
2018-04-15T02:18:39.446Z,12.3
2018-04-15T02:19:29.245Z,12.3
2018-04-15T02:20:19.617Z,12.3
2018-04-15T02:21:09.649Z,12.2
2018-04-15T02:21:59.722Z,12.2
2018-04-15T02:22:50.047Z,12.3
2018-04-15T02:23:40.114Z,12.3
2018-04-15T02:24:29.905Z,12.3
2018-04-15T02:25:19.977Z,12.3
2018-04-15T02:26:10.295Z,12.3
2018-04-15T02:27:00.361Z,12.3
2018-04-15T02:27:50.430Z,12.2
2018-04-15T02:28:40.481Z,12.3
2018-04-15T02:29:30.539Z,12.2
2018-04-15T02:30:20.336Z,12.2
2018-04-15T02:31:10.419Z,12.2
2018-04-15T02:32:00.495Z,12.2
2018-04-15T02:32:50.811Z,12.2
2018-04-15T02:33:40.622Z,12.2
2018-04-15T02:34:30.948Z,12.1
2018-04-15T02:35:20.731Z,12.1
2018-04-15T02:36:10.825Z,12.1
2018-04-15T02:37:00.877Z,12.1
2018-04-15T02:37:51.212Z,12.1
2018-04-15T02:38:41.287Z,12.1
2018-04-15T02:39:30.769Z,12.1
2018-04-15T02:40:21.419Z,12.1
2018-04-15T02:41:11.179Z,12.1
2018-04-15T02:42:00.946Z,12.1
2018-04-15T02:42:51.319Z,12.1
2018-04-15T02:43:41.380Z,11.9
2018-04-15T02:44:31.439Z,11.9
2018-04-15T02:45:21.813Z,11.9
2018-04-15T02:46:11.560Z,11.8
2018-04-15T02:47:01.646Z,11.8
2018-04-15T02:47:52.001Z,11.8
2018-04-15T02:48:42.038Z,11.8
2018-04-15T02:49:31.254Z,11.8
2018-04-15T02:50:22.157Z,11.8
2018-04-15T02:51:12.222Z,11.7
2018-04-15T02:52:02.288Z,11.7
2018-04-15T02:52:52.359Z,11.6
2018-04-15T02:53:41.591Z,11.6
2018-04-15T02:54:32.479Z,11.6
2018-04-15T02:55:22.548Z,11.7
2018-04-15T02:56:12.615Z,11.7
2018-04-15T02:57:02.668Z,11.6
2018-04-15T02:57:52.153Z,11.6
2018-04-15T02:58:42.796Z,11.6
2018-04-15T02:59:32.280Z,11.8
2018-04-15T03:00:22.933Z,11.9
2018-04-15T03:01:13.000Z,11.9
2018-04-15T03:02:02.788Z,11.9
2018-04-15T03:02:53.151Z,11.9
2018-04-15T03:03:43.180Z,11.9
2018-04-15T03:04:32.400Z,11.9
2018-04-15T03:05:23.320Z,11.9
2018-04-15T03:06:13.383Z,11.9
2018-04-15T03:07:03.147Z,11.8
2018-04-15T03:07:53.489Z,11.8
2018-04-15T03:08:43.568Z,11.8
2018-04-15T03:09:33.613Z,11.6
2018-04-15T03:10:23.680Z,11.6
2018-04-15T03:11:13.486Z,11.6
2018-04-15T03:12:03.299Z,11.6
2018-04-15T03:12:53.864Z,11.6
2018-04-15T03:13:43.406Z,11.6
2018-04-15T03:14:33.736Z,11.6
2018-04-15T03:15:24.066Z,11.6
2018-04-15T03:16:13.846Z,11.6
2018-04-15T03:17:04.190Z,11.6
2018-04-15T03:17:53.976Z,11.6
2018-04-15T03:18:44.069Z,11.6
2018-04-15T03:19:34.188Z,11.5
2018-04-15T03:20:24.436Z,11.5
2018-04-15T03:21:14.235Z,11.4
2018-04-15T03:22:04.600Z,11.4
2018-04-15T03:22:54.630Z,11.4
2018-04-15T03:23:44.706Z,11.4
2018-04-15T03:24:34.751Z,11.3
2018-04-15T03:25:24.963Z,11.3
2018-04-15T03:26:14.634Z,11.3
2018-04-15T03:27:04.683Z,11.3
2018-04-15T03:27:55.018Z,11.3
2018-04-15T03:28:45.131Z,11.2
2018-04-15T03:29:34.871Z,11.3
2018-04-15T03:30:25.295Z,11.3
2018-04-15T03:31:15.269Z,11.3
2018-04-15T03:32:05.378Z,11.3
2018-04-15T03:32:55.126Z,11.2
2018-04-15T03:33:45.497Z,11.2
2018-04-15T03:34:35.513Z,11.2
2018-04-15T03:35:25.325Z,11.2
2018-04-15T03:36:15.655Z,11.1
2018-04-15T03:37:05.717Z,11.1
2018-04-15T03:37:55.233Z,11.1
2018-04-15T03:38:45.831Z,11.1
2018-04-15T03:39:35.914Z,11.1
2018-04-15T03:40:25.695Z,11.1
2018-04-15T03:41:15.488Z,11.1
2018-04-15T03:42:06.095Z,11.1
2018-04-15T03:42:56.169Z,11.1
2018-04-15T03:43:46.249Z,11.1
2018-04-15T03:44:36.289Z,11
2018-04-15T03:45:25.524Z,11.1
2018-04-15T03:46:16.109Z,11.1
2018-04-15T03:47:06.482Z,11
2018-04-15T03:47:56.262Z,11.1
2018-04-15T03:48:46.049Z,11
2018-04-15T03:49:36.660Z,11.1
2018-04-15T03:50:26.722Z,11.1
2018-04-15T03:51:16.242Z,11
2018-04-15T03:52:06.603Z,11.1
2018-04-15T03:52:56.924Z,11
2018-04-15T03:53:46.978Z,11
2018-04-15T03:54:37.052Z,11
2018-04-15T03:55:26.291Z,11
2018-04-15T03:56:16.889Z,10.9
2018-04-15T03:57:07.253Z,10.9
2018-04-15T03:57:56.759Z,10.9
2018-04-15T03:58:47.375Z,10.9
2018-04-15T03:59:37.158Z,10.9
2018-04-15T04:00:27.511Z,10.9
2018-04-15T04:01:17.568Z,10.9
2018-04-15T04:02:07.444Z,10.9
2018-04-15T04:02:57.417Z,11
2018-04-15T04:03:47.494Z,11
2018-04-15T04:04:37.531Z,11
2018-04-15T04:05:27.876Z,11
2018-04-15T04:06:17.928Z,11
2018-04-15T04:07:07.744Z,11
2018-04-15T04:07:58.103Z,11
2018-04-15T04:08:48.126Z,11
2018-04-15T04:09:38.205Z,11
2018-04-15T04:10:28.274Z,11
2018-04-15T04:11:18.326Z,11
2018-04-15T04:12:08.376Z,11
2018-04-15T04:12:57.881Z,11
2018-04-15T04:13:48.511Z,11
2018-04-15T04:14:38.019Z,11
2018-04-15T04:15:28.353Z,11
2018-04-15T04:16:18.145Z,11.1
2018-04-15T04:17:08.769Z,11.1
2018-04-15T04:17:58.836Z,11.1
2018-04-15T04:18:48.315Z,11.1
2018-04-15T04:19:39.017Z,11.2
2018-04-15T04:20:29.302Z,11.2
2018-04-15T04:21:18.810Z,11.2
2018-04-15T04:22:09.137Z,11.3
2018-04-15T04:22:59.232Z,11.3
2018-04-15T04:23:49.257Z,11.3
2018-04-15T04:24:39.336Z,11.3
2018-04-15T04:25:29.114Z,11.4
2018-04-15T04:26:19.469Z,11.4
2018-04-15T04:27:08.982Z,11.5
2018-04-15T04:27:59.312Z,11.5
2018-04-15T04:28:48.821Z,11.5
2018-04-15T04:29:39.726Z,11.6
2018-04-15T04:30:29.799Z,11.6
2018-04-15T04:31:19.887Z,11.6
2018-04-15T04:32:09.649Z,11.6
2018-04-15T04:32:59.722Z,11.6
2018-04-15T04:33:50.049Z,11.7
2018-04-15T04:34:39.285Z,11.7
2018-04-15T04:35:30.185Z,11.7
2018-04-15T04:36:19.952Z,11.8
2018-04-15T04:37:09.752Z,11.8
2018-04-15T04:38:00.101Z,11.8
2018-04-15T04:38:49.856Z,11.8
2018-04-15T04:39:40.424Z,11.8
2018-04-15T04:40:30.269Z,11.9
2018-04-15T04:41:20.336Z,11.9
2018-04-15T04:42:10.121Z,12.1
2018-04-15T04:43:00.753Z,12.1
2018-04-15T04:43:50.801Z,12.1
2018-04-15T04:44:40.613Z,12.2
2018-04-15T04:45:30.661Z,12.2
2018-04-15T04:46:21.024Z,12.3
2018-04-15T04:47:11.069Z,12.4
2018-04-15T04:48:01.120Z,12.4
2018-04-15T04:48:51.203Z,12.4
2018-04-15T04:49:41.300Z,12.5
2018-04-15T04:50:31.308Z,12.6
2018-04-15T04:51:21.388Z,12.6
2018-04-15T04:52:11.451Z,12.6
2018-04-15T04:53:01.243Z,12.7
2018-04-15T04:53:51.025Z,12.7
2018-04-15T04:54:41.371Z,12.8
2018-04-15T04:55:31.706Z,12.8
2018-04-15T04:56:21.473Z,12.9
2018-04-15T04:57:11.815Z,12.9
2018-04-15T04:58:01.876Z,12.9
2018-04-15T04:58:51.963Z,12.9
2018-04-15T04:59:41.733Z,12.9
2018-04-15T05:00:31.528Z,12.9
2018-04-15T05:01:21.879Z,12.9
2018-04-15T05:02:12.215Z,13
2018-04-15T05:03:01.992Z,13
2018-04-15T05:03:52.347Z,13
2018-04-15T05:04:42.149Z,13.1
2018-04-15T05:05:32.459Z,13.1
2018-04-15T05:06:22.524Z,13.1
2018-04-15T05:07:12.583Z,13.2
2018-04-15T05:08:02.112Z,13.3
2018-04-15T05:08:52.171Z,13.3
2018-04-15T05:09:42.228Z,13.3
2018-04-15T05:10:32.872Z,13.3
2018-04-15T05:11:22.228Z,13.3
2018-04-15T05:12:12.770Z,13.3
2018-04-15T05:13:03.074Z,13.4
2018-04-15T05:13:53.102Z,13.5
2018-04-15T05:14:42.872Z,13.6
2018-04-15T05:15:32.737Z,13.6
2018-04-15T05:16:23.274Z,13.7
2018-04-15T05:17:13.655Z,13.8
2018-04-15T05:18:03.437Z,13.8
2018-04-15T05:18:53.217Z,13.8
2018-04-15T05:19:42.757Z,13.8
2018-04-15T05:20:33.041Z,13.8
2018-04-15T05:21:23.659Z,13.9
2018-04-15T05:22:12.911Z,14
2018-04-15T05:23:42.007Z,13.9
2018-04-15T05:24:32.068Z,13.9
2018-04-15T05:25:22.426Z,14
2018-04-15T05:26:11.708Z,14.1
2018-04-15T05:27:02.544Z,14.1
2018-04-15T05:27:52.328Z,14.1
2018-04-15T05:28:42.665Z,14.2
2018-04-15T05:29:32.755Z,14.3
2018-04-15T05:30:22.795Z,14.4
2018-04-15T05:31:12.901Z,14.5
2018-04-15T05:32:02.946Z,14.6
2018-04-15T05:32:53.005Z,14.5
2018-04-15T05:33:43.051Z,14.6
2018-04-15T05:34:32.572Z,14.6
2018-04-15T05:35:23.175Z,14.7
2018-04-15T05:36:13.233Z,14.7
2018-04-15T05:37:03.308Z,14.7
2018-04-15T05:37:53.366Z,14.6
2018-04-15T05:38:42.878Z,14.6
2018-04-15T05:39:33.223Z,14.7
2018-04-15T05:40:23.541Z,14.8
2018-04-15T05:41:13.603Z,14.8
2018-04-15T05:42:03.682Z,14.8
2018-04-15T05:42:53.756Z,14.9
2018-04-15T05:43:43.805Z,14.9
2018-04-15T05:44:33.613Z,15
2018-04-15T05:45:23.961Z,15.1
2018-04-15T05:46:13.523Z,14.9
2018-04-15T05:47:04.069Z,14.7
2018-04-15T05:47:53.847Z,14.5
2018-04-15T05:48:43.909Z,14.5
2018-04-15T05:49:34.267Z,14.6
2018-04-15T05:50:23.767Z,14.8
2018-04-15T05:51:13.522Z,14.8
2018-04-15T05:52:03.921Z,14.9
2018-04-15T05:52:54.219Z,15.1
2018-04-15T05:53:44.576Z,15.3
2018-04-15T05:54:34.328Z,15.3
2018-04-15T05:55:24.138Z,15.4
2018-04-15T05:56:14.005Z,15.2
2018-04-15T05:57:04.567Z,15.2
2018-04-15T05:57:54.922Z,15.3
2018-04-15T05:58:44.974Z,15.4
2018-04-15T05:59:34.982Z,15.4
2018-04-15T06:00:25.062Z,15.2
2018-04-15T06:01:14.895Z,15.2
2018-04-15T06:02:04.926Z,15.1
2018-04-15T06:02:55.002Z,15.1
2018-04-15T06:03:45.044Z,15.1
2018-04-15T06:04:35.394Z,15.3
2018-04-15T06:05:25.469Z,15.5
2018-04-15T06:06:15.241Z,15.5
2018-04-15T06:07:05.312Z,15.7
2018-04-15T06:07:55.371Z,15.9
2018-04-15T06:08:45.693Z,16
2018-04-15T06:09:35.769Z,16.1
2018-04-15T06:10:25.836Z,16
2018-04-15T06:11:15.920Z,15.9
2018-04-15T06:12:05.680Z,16.1
2018-04-15T06:12:56.026Z,16.3
2018-04-15T06:13:46.116Z,16.4
2018-04-15T06:14:35.891Z,16.4
2018-04-15T06:15:26.206Z,16.6
2018-04-15T06:16:16.284Z,16.6
2018-04-15T06:17:06.346Z,16.5
2018-04-15T06:17:56.138Z,16.6
2018-04-15T06:18:46.497Z,16.6
2018-04-15T06:19:36.248Z,16.6
2018-04-15T06:20:26.326Z,16.4
2018-04-15T06:21:16.656Z,16.5
2018-04-15T06:22:06.730Z,16.5
2018-04-15T06:22:56.777Z,16.6
2018-04-15T06:23:46.558Z,16.5
2018-04-15T06:24:36.939Z,16.6
2018-04-15T06:25:27.000Z,16.7
2018-04-15T06:26:16.789Z,16.8
2018-04-15T06:27:06.812Z,16.8
2018-04-15T06:27:57.156Z,16.8
2018-04-15T06:28:46.982Z,16.8
2018-04-15T06:29:37.017Z,16.8
2018-04-15T06:30:26.865Z,16.8
2018-04-15T06:31:17.179Z,16.8
2018-04-15T06:32:07.483Z,16.9
2018-04-15T06:32:57.261Z,16.9
2018-04-15T06:33:47.355Z,16.9
2018-04-15T06:35:27.457Z,17.1
2018-04-15T06:36:17.817Z,17.1
2018-04-15T06:37:07.588Z,17.1
2018-04-15T06:37:57.657Z,16.9
2018-04-15T06:39:37.767Z,17.1
2018-04-15T06:40:28.137Z,17.3
2018-04-15T06:41:17.633Z,17.3
2018-04-15T06:42:07.702Z,17.3
2018-04-15T06:42:58.050Z,17.3
2018-04-15T06:43:47.524Z,17.3
2018-04-15T06:44:38.139Z,17.3
2018-04-15T06:45:28.227Z,17.3
2018-04-15T06:46:18.283Z,17.4
2018-04-15T06:47:08.634Z,17.1
2018-04-15T06:47:58.688Z,17.3
2018-04-15T06:48:48.173Z,17.1
2018-04-15T06:49:38.540Z,17.1
2018-04-15T06:50:28.908Z,17.2
2018-04-15T06:51:18.939Z,17.4
2018-04-15T06:52:08.733Z,17.5
2018-04-15T06:52:58.796Z,17.7
2018-04-15T06:53:49.110Z,18
2018-04-15T06:54:38.916Z,18.1
2018-04-15T06:55:28.969Z,18.1
2018-04-15T06:56:19.370Z,18
2018-04-15T06:57:09.405Z,18.1
2018-04-15T06:57:59.440Z,18.3
2018-04-15T06:58:49.235Z,18.3
2018-04-15T06:59:39.315Z,18.4
2018-04-15T07:00:29.633Z,18.5
2018-04-15T07:01:19.699Z,18.3
2018-04-15T07:02:09.478Z,18.3
2018-04-15T07:02:59.827Z,18.4
2018-04-15T07:03:49.344Z,18.5
2018-04-15T07:04:39.407Z,18.5
2018-04-15T07:05:30.037Z,18.4
2018-04-15T07:06:19.250Z,18.6
2018-04-15T07:07:59.743Z,18.8
2018-04-15T07:08:49.735Z,19
2018-04-15T07:09:40.627Z,18.8
2018-04-15T07:10:30.388Z,18.6
2018-04-15T07:12:10.563Z,18.8
2018-04-15T07:13:00.311Z,18.4
2018-04-15T07:13:49.799Z,18.9
2018-04-15T07:14:40.449Z,19.3
2018-04-15T07:15:30.787Z,19.3
2018-04-15T07:16:20.859Z,19.4
2018-04-15T07:17:10.929Z,19.2
2018-04-15T07:18:01.011Z,18.9
2018-04-15T07:18:51.019Z,19.3
2018-04-15T07:19:40.813Z,19.1
2018-04-15T07:20:30.583Z,19.3
2018-04-15T07:21:21.231Z,19.3
2018-04-15T07:22:11.019Z,19.5
2018-04-15T07:23:00.867Z,19.6
2018-04-15T07:23:51.436Z,19.6
2018-04-15T07:24:41.013Z,19.6
2018-04-15T07:25:31.282Z,19.6
2018-04-15T07:26:21.630Z,19.6
2018-04-15T07:27:11.671Z,19.5
2018-04-15T07:28:01.174Z,19.3
2018-04-15T07:28:51.825Z,19.1
2018-04-15T07:29:41.305Z,19.1
2018-04-15T07:30:31.721Z,19.1
2018-04-15T07:31:21.736Z,19.1
2018-04-15T07:32:12.068Z,19.2
2018-04-15T07:33:01.283Z,19.3
2018-04-15T07:33:51.643Z,19.4
2018-04-15T07:34:41.981Z,19.7
2018-04-15T07:35:31.748Z,20
2018-04-15T07:36:21.905Z,19.9
2018-04-15T07:37:12.426Z,19.9
2018-04-15T07:38:02.231Z,19.9
2018-04-15T07:38:52.113Z,19.8
2018-04-15T07:39:42.645Z,19.6
2018-04-15T07:40:32.687Z,19.9
2018-04-15T07:41:22.773Z,19.9
2018-04-15T07:42:12.563Z,19.9
2018-04-15T07:43:02.911Z,19.8
2018-04-15T07:43:52.407Z,19.5
2018-04-15T07:44:42.735Z,19.4
2018-04-15T07:45:33.085Z,19.5
2018-04-15T07:46:23.230Z,19.6
2018-04-15T07:47:12.938Z,19.4
2018-04-15T07:48:03.007Z,19.3
2018-04-15T07:48:53.346Z,19.4
2018-04-15T07:49:43.172Z,19.5
2018-04-15T07:50:33.711Z,19.4
2018-04-15T07:51:23.524Z,19.2
2018-04-15T07:52:13.602Z,19.3
2018-04-15T07:53:03.389Z,19.2
2018-04-15T07:53:53.717Z,19.4
2018-04-15T07:54:43.775Z,19.6
2018-04-15T07:55:33.864Z,19.8
2018-04-15T07:56:23.929Z,19.6
2018-04-15T07:57:13.704Z,19.4
2018-04-15T07:58:03.492Z,19.1
2018-04-15T07:58:54.118Z,19.3
2018-04-15T07:59:43.901Z,19.3
2018-04-15T08:00:34.252Z,19.9
2018-04-15T08:01:24.314Z,20.2
2018-04-15T08:02:14.368Z,20.1
2018-04-15T08:03:04.454Z,19.9
2018-04-15T08:03:54.493Z,19.7
2018-04-15T08:04:44.566Z,19.8
2018-04-15T08:05:34.366Z,19.7
2018-04-15T08:06:24.697Z,19.8
2018-04-15T08:07:14.492Z,19.9
2018-04-15T08:08:04.590Z,20
2018-04-15T08:08:54.894Z,20.1
2018-04-15T08:09:44.975Z,20.2
2018-04-15T08:10:35.021Z,20.6
2018-04-15T08:11:24.791Z,20.4
2018-04-15T08:12:14.296Z,20.2
2018-04-15T08:13:05.222Z,20
2018-04-15T08:13:55.277Z,20.4
2018-04-15T08:14:44.774Z,20.8
2018-04-15T08:15:35.407Z,20.7
2018-04-15T08:16:25.188Z,20.6
2018-04-15T08:17:15.775Z,20.6
2018-04-15T08:18:05.303Z,20.9
2018-04-15T08:18:55.659Z,20.9
2018-04-15T08:20:35.823Z,20.8
2018-04-15T08:21:25.375Z,20.5
2018-04-15T08:22:15.646Z,20.3
2018-04-15T08:23:05.431Z,20.1
2018-04-15T08:23:55.496Z,20
2018-04-15T08:24:46.103Z,20.3
2018-04-15T08:25:36.178Z,20.2
2018-04-15T08:26:26.234Z,20.4
2018-04-15T08:27:16.331Z,20.8
2018-04-15T08:28:06.400Z,20.8
2018-04-15T08:28:56.456Z,20.8
2018-04-15T08:29:45.931Z,21.1
2018-04-15T08:30:36.568Z,20.6
2018-04-15T08:31:26.621Z,20.9
2018-04-15T08:32:16.700Z,21.4
2018-04-15T08:33:56.588Z,20.9
2018-04-15T08:34:46.423Z,21.2
2018-04-15T08:35:36.680Z,21.3
2018-04-15T08:36:26.604Z,21.3
2018-04-15T08:37:17.064Z,21.3
2018-04-15T08:38:07.129Z,20.8
2018-04-15T08:38:56.908Z,20.4
2018-04-15T08:39:47.268Z,20.4
2018-04-15T08:40:37.061Z,20.8
2018-04-15T08:41:27.425Z,21.1
2018-04-15T08:42:16.994Z,21.1
2018-04-15T08:43:06.997Z,21
2018-04-15T08:43:57.606Z,21
2018-04-15T08:44:47.660Z,21.1
2018-04-15T08:45:37.737Z,20.9
2018-04-15T08:46:27.785Z,21.1
2018-04-15T08:47:17.897Z,21
2018-04-15T08:48:07.652Z,21.2
2018-04-15T08:48:57.973Z,21.2
2018-04-15T08:49:47.782Z,21
2018-04-15T08:50:36.991Z,21.5
2018-04-15T08:51:27.614Z,22
2018-04-15T08:52:17.972Z,21.9
2018-04-15T08:53:07.744Z,22.2
2018-04-15T08:53:58.373Z,21.9
2018-04-15T08:54:48.431Z,21.4
2018-04-15T08:55:38.511Z,21.1
2018-04-15T08:56:28.296Z,20.4
2018-04-15T08:57:17.879Z,20.3
2018-04-15T08:58:08.439Z,20.3
2018-04-15T08:58:58.761Z,19.9
2018-04-15T08:59:48.850Z,19.9
2018-04-15T09:00:38.736Z,20.1
2018-04-15T09:01:28.938Z,20
2018-04-15T09:02:19.008Z,20
2018-04-15T09:03:08.901Z,20
2018-04-15T09:03:58.877Z,20
2018-04-15T09:04:49.232Z,20.3
2018-04-15T09:05:38.708Z,20.4
2018-04-15T09:06:29.088Z,20.1
2018-04-15T09:07:19.125Z,20.2
2018-04-15T09:08:09.208Z,20.5
2018-04-15T09:08:58.967Z,20.6
2018-04-15T09:09:49.840Z,20.8
2018-04-15T09:10:39.664Z,20.5
2018-04-15T09:11:29.727Z,20.7
2018-04-15T09:12:18.935Z,20.7
2018-04-15T09:13:09.901Z,20.9
2018-04-15T09:13:59.656Z,20.9
2018-04-15T09:14:50.001Z,20.9
2018-04-15T09:15:39.517Z,20.8
2018-04-15T09:16:30.130Z,20.7
2018-04-15T09:17:19.806Z,20.9
2018-04-15T09:18:10.413Z,21.2
2018-04-15T09:18:59.759Z,21.2
2018-04-15T09:21:30.227Z,20.7
2018-04-15T09:22:20.086Z,20.8
2018-04-15T09:23:10.781Z,21
2018-04-15T09:24:00.448Z,21.2
2018-04-15T09:24:49.926Z,20.9
2018-04-15T09:25:40.296Z,20.9
2018-04-15T09:26:31.271Z,21.1
2018-04-15T09:27:20.670Z,20.8
2018-04-15T09:28:10.756Z,20.9
2018-04-15T09:29:00.828Z,21.3
2018-04-15T09:29:51.155Z,21.3
2018-04-15T09:30:40.636Z,21.2
2018-04-15T09:32:21.361Z,20.7
2018-04-15T09:33:10.834Z,20.5
2018-04-15T09:34:01.475Z,20.8
2018-04-15T09:34:51.540Z,20.8
2018-04-15T09:35:41.738Z,20.8
2018-04-15T09:36:31.681Z,21.1
2018-04-15T09:37:21.271Z,21.3
2018-04-15T09:38:11.509Z,21
2018-04-15T09:39:01.578Z,20.8
2018-04-15T09:39:51.667Z,20.8
2018-04-15T09:40:41.710Z,20.8
2018-04-15T09:41:32.062Z,20.5
2018-04-15T09:42:21.550Z,20.6
2018-04-15T09:43:12.178Z,20.7
2018-04-15T09:44:02.227Z,20.7
2018-04-15T09:44:52.026Z,20.5
2018-04-15T09:45:42.084Z,20.6
2018-04-15T09:46:32.447Z,20.6
2018-04-15T09:47:22.489Z,20.6
2018-04-15T09:48:12.566Z,20.8
2018-04-15T09:49:02.631Z,20.4
2018-04-15T09:49:52.413Z,20.1
2018-04-15T09:50:42.481Z,20
2018-04-15T09:51:32.825Z,19.9
2018-04-15T09:52:22.899Z,19.9
2018-04-15T09:53:12.658Z,20.1
2018-04-15T09:54:02.735Z,19.9
2018-04-15T09:54:53.077Z,19.8
2018-04-15T09:55:43.140Z,19.8
2018-04-15T09:56:33.280Z,20
2018-04-15T09:57:23.024Z,20
2018-04-15T09:58:12.758Z,20.3
2018-04-15T09:59:03.125Z,20.1
2018-04-15T09:59:53.512Z,20
2018-04-15T10:00:43.530Z,20.3
2018-04-15T10:01:33.322Z,20.1
2018-04-15T10:02:23.389Z,20.2
2018-04-15T10:03:13.464Z,20.2
2018-04-15T10:04:03.808Z,20
2018-04-15T10:04:53.579Z,19.8
2018-04-15T10:05:43.650Z,19.8
2018-04-15T10:06:33.563Z,19.8
2018-04-15T10:07:24.065Z,20
2018-04-15T10:08:14.125Z,19.9
2018-04-15T10:09:03.877Z,19.8
2018-04-15T10:09:54.251Z,19.9
2018-04-15T10:10:44.317Z,19.9
2018-04-15T10:11:34.366Z,19.8
2018-04-15T10:12:23.954Z,19.7
2018-04-15T10:13:14.509Z,19.7
2018-04-15T10:14:04.549Z,19.7
2018-04-15T10:14:54.636Z,19.6
2018-04-15T10:15:44.413Z,19.6
2018-04-15T10:16:34.505Z,19.6
2018-04-15T10:17:24.796Z,19.9
2018-04-15T10:18:14.875Z,20.1
2018-04-15T10:19:04.104Z,20.1
2018-04-15T10:19:55.009Z,20.1
2018-04-15T10:20:44.786Z,20.1
2018-04-15T10:21:35.126Z,19.8
2018-04-15T10:22:25.188Z,19.8
2018-04-15T10:23:14.681Z,19.9
2018-04-15T10:24:05.499Z,19.8
2018-04-15T10:24:55.401Z,19.8
2018-04-15T10:25:45.464Z,19.9
2018-04-15T10:26:34.983Z,20.2
2018-04-15T10:27:25.573Z,20.2
2018-04-15T10:28:15.366Z,20
2018-04-15T10:29:05.695Z,19.8
2018-04-15T10:29:55.786Z,19.8
2018-04-15T10:30:45.841Z,19.8
2018-04-15T10:31:35.635Z,19.7
2018-04-15T10:32:25.686Z,20
2018-04-15T10:33:16.031Z,20.2
2018-04-15T10:34:05.824Z,20.2
2018-04-15T10:34:56.158Z,20.1
2018-04-15T10:35:46.216Z,20.3
2018-04-15T10:36:36.281Z,20.1
2018-04-15T10:37:26.339Z,20.1
2018-04-15T10:38:16.409Z,20.4
2018-04-15T10:39:06.486Z,20.1
2018-04-15T10:39:56.565Z,20.1
2018-04-15T10:40:46.589Z,20.4
2018-04-15T10:41:36.678Z,20.3
2018-04-15T10:42:26.456Z,20.3
2018-04-15T10:43:16.799Z,20.5
2018-04-15T10:44:06.577Z,20.3
2018-04-15T10:44:56.369Z,20.3
2018-04-15T10:45:46.994Z,20.3
2018-04-15T10:46:37.070Z,20.3
2018-04-15T10:47:26.838Z,20.3
2018-04-15T10:48:17.185Z,20.3
2018-04-15T10:49:06.993Z,20.2
2018-04-15T10:49:57.295Z,20.1
2018-04-15T10:50:47.106Z,20.5
2018-04-15T10:51:37.441Z,20.6
2018-04-15T10:52:27.219Z,20.8
2018-04-15T10:53:17.556Z,20.8
2018-04-15T10:54:57.681Z,21.2
2018-04-15T10:55:47.471Z,21.2
2018-04-15T10:56:37.829Z,21.4
2018-04-15T10:58:17.670Z,20.7
2018-04-15T10:59:07.993Z,20.6
2018-04-15T10:59:58.053Z,20.6
2018-04-15T11:00:47.651Z,20.7
2018-04-15T11:01:38.232Z,21.2
2018-04-15T11:02:27.791Z,20.9
2018-04-15T11:03:17.844Z,20.9
2018-04-15T11:04:08.431Z,20.9
2018-04-15T11:04:58.435Z,20.9
2018-04-15T11:05:48.517Z,21
2018-04-15T11:06:38.321Z,20.9
2018-04-15T11:07:28.638Z,20.9
2018-04-15T11:08:18.453Z,21
2018-04-15T11:09:08.531Z,21.1
2018-04-15T11:09:58.866Z,20.9
2018-04-15T11:10:48.894Z,21.1
2018-04-15T11:11:38.951Z,20.7
2018-04-15T11:12:28.745Z,20.9
2018-04-15T11:13:19.080Z,20.8
2018-04-15T11:14:09.095Z,20.9
2018-04-15T11:14:58.655Z,21.1
2018-04-15T11:15:48.528Z,21.4
2018-04-15T11:16:39.359Z,21.4
2018-04-15T11:17:29.154Z,21.4
2018-04-15T11:19:09.079Z,20.9
2018-04-15T11:20:49.665Z,21.1
2018-04-15T11:21:39.745Z,21.5